sensor_id;sensor_type;location;lat;lon;timestamp;pressure;altitude;pressure_sealevel;temperature;humidity
3294;BME280;1659;51.470;6.770;2024-02-15T00:00:10;101597.28;;;11.78;100.00
3294;BME280;1659;51.470;6.770;2024-02-15T00:02:37;101593.75;;;11.78;100.00
3294;BME280;1659;51.470;6.770;2024-02-15T00:05:05;101600.81;;;11.77;100.00
3294;BME280;1659;51.470;6.770;2024-02-15T00:07:33;101599.94;;;11.78;100.00
3294;BME280;1659;51.470;6.770;2024-02-15T00:10:00;101602.59;;;11.77;100.00
3294;BME280;1659;51.470;6.770;2024-02-15T00:12:29;101599.06;;;11.76;100.00
3294;BME280;1659;51.470;6.770;2024-02-15T00:14:56;101595.53;;;11.74;100.00
3294;BME280;1659;51.470;6.770;2024-02-15T00:17:23;101596.44;;;11.73;100.00
3294;BME280;1659;51.470;6.770;2024-02-15T00:19:50;101594.69;;;11.72;100.00
3294;BME280;1659;51.470;6.770;2024-02-15T00:22:18;101602.63;;;11.72;100.00
3294;BME280;1659;51.470;6.770;2024-02-15T00:24:46;101600.88;;;11.71;100.00
3294;BME280;1659;51.470;6.770;2024-02-15T00:27:14;101600.88;;;11.71;100.00
3294;BME280;1659;51.470;6.770;2024-02-15T00:29:40;101598.22;;;11.71;100.00
3294;BME280;1659;51.470;6.770;2024-02-15T00:32:08;101589.38;;;11.70;100.00
3294;BME280;1659;51.470;6.770;2024-02-15T00:34:35;101591.16;;;11.70;100.00
3294;BME280;1659;51.470;6.770;2024-02-15T00:37:02;101599.13;;;11.70;100.00
3294;BME280;1659;51.470;6.770;2024-02-15T00:39:31;101607.97;;;11.69;100.00
3294;BME280;1659;51.470;6.770;2024-02-15T00:41:57;101603.53;;;11.69;100.00
3294;BME280;1659;51.470;6.770;2024-02-15T00:44:25;101603.53;;;11.69;100.00
3294;BME280;1659;51.470;6.770;2024-02-15T00:46:52;101603.53;;;11.69;100.00
3294;BME280;1659;51.470;6.770;2024-02-15T00:49:18;101596.47;;;11.71;100.00
3294;BME280;1659;51.470;6.770;2024-02-15T00:51:46;101606.16;;;11.73;100.00
3294;BME280;1659;51.470;6.770;2024-02-15T00:54:13;101599.97;;;11.74;100.00
3294;BME280;1659;51.470;6.770;2024-02-15T00:56:41;101594.66;;;11.74;100.00
3294;BME280;1659;51.470;6.770;2024-02-15T00:59:07;101597.31;;;11.74;100.00
3294;BME280;1659;51.470;6.770;2024-02-15T01:01:34;101596.41;;;11.76;100.00
3294;BME280;1659;51.470;6.770;2024-02-15T01:04:03;101605.22;;;11.77;100.00
3294;BME280;1659;51.470;6.770;2024-02-15T01:06:29;101586.69;;;11.78;100.00
3294;BME280;1659;51.470;6.770;2024-02-15T01:08:56;101590.19;;;11.80;100.00
3294;BME280;1659;51.470;6.770;2024-02-15T01:11:23;101595.47;;;11.80;100.00
3294;BME280;1659;51.470;6.770;2024-02-15T01:13:52;101592.84;;;11.80;100.00
3294;BME280;1659;51.470;6.770;2024-02-15T01:16:18;101587.53;;;11.82;100.00
3294;BME280;1659;51.470;6.770;2024-02-15T01:18:46;101584.88;;;11.83;100.00
3294;BME280;1659;51.470;6.770;2024-02-15T01:21:13;101581.31;;;11.83;100.00
3294;BME280;1659;51.470;6.770;2024-02-15T01:23:39;101579.56;;;11.85;100.00
3294;BME280;1659;51.470;6.770;2024-02-15T01:26:06;101580.44;;;11.85;100.00
3294;BME280;1659;51.470;6.770;2024-02-15T01:28:33;101578.66;;;11.84;100.00
3294;BME280;1659;51.470;6.770;2024-02-15T01:31:01;101583.06;;;11.85;100.00
3294;BME280;1659;51.470;6.770;2024-02-15T01:33:28;101581.31;;;11.84;100.00
3294;BME280;1659;51.470;6.770;2024-02-15T01:35:54;101578.66;;;11.84;100.00
3294;BME280;1659;51.470;6.770;2024-02-15T01:38:21;101575.13;;;11.85;100.00
3294;BME280;1659;51.470;6.770;2024-02-15T01:40:48;101579.56;;;11.83;100.00
3294;BME280;1659;51.470;6.770;2024-02-15T01:43:14;101579.56;;;11.83;100.00
3294;BME280;1659;51.470;6.770;2024-02-15T01:45:41;101569.88;;;11.81;100.00
3294;BME280;1659;51.470;6.770;2024-02-15T01:48:10;101575.16;;;11.81;100.00
3294;BME280;1659;51.470;6.770;2024-02-15T01:50:37;101577.81;;;11.82;100.00
3294;BME280;1659;51.470;6.770;2024-02-15T01:53:05;101570.78;;;11.81;100.00
3294;BME280;1659;51.470;6.770;2024-02-15T01:55:33;101581.31;;;11.83;100.00
3294;BME280;1659;51.470;6.770;2024-02-15T01:58:00;101577.81;;;11.82;100.00
3294;BME280;1659;51.470;6.770;2024-02-15T02:00:27;101572.50;;;11.82;100.00
3294;BME280;1659;51.470;6.770;2024-02-15T02:02:56;101572.50;;;11.82;100.00
3294;BME280;1659;51.470;6.770;2024-02-15T02:05:29;101580.47;;;11.81;100.00
3294;BME280;1659;51.470;6.770;2024-02-15T02:07:56;101560.19;;;11.78;100.00
3294;BME280;1659;51.470;6.770;2024-02-15T02:10:26;101561.97;;;11.78;100.00
3294;BME280;1659;51.470;6.770;2024-02-15T02:12:58;101559.34;;;11.76;100.00
3294;BME280;1659;51.470;6.770;2024-02-15T02:15:24;101557.59;;;11.75;100.00
3294;BME280;1659;51.470;6.770;2024-02-15T02:17:51;101557.59;;;11.74;100.00
3294;BME280;1659;51.470;6.770;2024-02-15T02:20:18;101551.44;;;11.73;100.00
3294;BME280;1659;51.470;6.770;2024-02-15T02:22:48;101545.25;;;11.73;100.00
3294;BME280;1659;51.470;6.770;2024-02-15T02:25:18;101532.91;;;11.71;100.00
3294;BME280;1659;51.470;6.770;2024-02-15T02:27:46;101524.09;;;11.71;100.00
3294;BME280;1659;51.470;6.770;2024-02-15T02:30:15;101527.63;;;11.70;100.00
3294;BME280;1659;51.470;6.770;2024-02-15T02:32:44;101526.75;;;11.71;100.00
3294;BME280;1659;51.470;6.770;2024-02-15T02:35:10;101524.97;;;11.71;100.00
3294;BME280;1659;51.470;6.770;2024-02-15T02:37:38;101543.50;;;11.71;100.00
3294;BME280;1659;51.470;6.770;2024-02-15T02:40:06;101528.47;;;11.72;100.00
3294;BME280;1659;51.470;6.770;2024-02-15T02:42:35;101524.97;;;11.71;100.00
3294;BME280;1659;51.470;6.770;2024-02-15T02:45:02;101523.19;;;11.70;100.00
3294;BME280;1659;51.470;6.770;2024-02-15T02:47:27;101527.59;;;11.73;100.00
3294;BME280;1659;51.470;6.770;2024-02-15T02:49:54;101524.94;;;11.75;100.00
3294;BME280;1659;51.470;6.770;2024-02-15T02:52:20;101522.28;;;11.76;100.00
3294;BME280;1659;51.470;6.770;2024-02-15T02:54:47;101524.00;;;11.77;100.00
3294;BME280;1659;51.470;6.770;2024-02-15T02:57:13;101513.41;;;11.79;100.00
3294;BME280;1659;51.470;6.770;2024-02-15T02:59:41;101518.69;;;11.79;100.00
3294;BME280;1659;51.470;6.770;2024-02-15T03:02:08;101512.53;;;11.80;100.00
3294;BME280;1659;51.470;6.770;2024-02-15T03:04:34;101508.09;;;11.79;100.00
3294;BME280;1659;51.470;6.770;2024-02-15T03:07:01;101501.94;;;11.80;100.00
3294;BME280;1659;51.470;6.770;2024-02-15T03:09:28;101499.28;;;11.80;100.00
3294;BME280;1659;51.470;6.770;2024-02-15T03:11:55;101501.91;;;11.81;100.00
3294;BME280;1659;51.470;6.770;2024-02-15T03:14:21;101494.84;;;11.80;100.00
3294;BME280;1659;51.470;6.770;2024-02-15T03:16:49;101507.22;;;11.81;100.00
3294;BME280;1659;51.470;6.770;2024-02-15T03:19:15;101499.22;;;11.83;100.00
3294;BME280;1659;51.470;6.770;2024-02-15T03:21:42;101501.88;;;11.83;100.00
3294;BME280;1659;51.470;6.770;2024-02-15T03:24:11;101504.50;;;11.83;100.00
3294;BME280;1659;51.470;6.770;2024-02-15T03:26:38;101497.47;;;11.83;100.00
3294;BME280;1659;51.470;6.770;2024-02-15T03:29:05;101493.06;;;11.82;100.00
3294;BME280;1659;51.470;6.770;2024-02-15T03:31:33;101505.41;;;11.83;100.00
3294;BME280;1659;51.470;6.770;2024-02-15T03:34:03;101499.19;;;11.84;100.00
3294;BME280;1659;51.470;6.770;2024-02-15T03:36:29;101496.56;;;11.84;100.00
3294;BME280;1659;51.470;6.770;2024-02-15T03:38:56;101491.25;;;11.86;100.00
3294;BME280;1659;51.470;6.770;2024-02-15T03:41:22;101500.09;;;11.86;100.00
3294;BME280;1659;51.470;6.770;2024-02-15T03:43:50;101495.66;;;11.88;100.00
3294;BME280;1659;51.470;6.770;2024-02-15T03:46:16;101497.41;;;11.88;100.00
3294;BME280;1659;51.470;6.770;2024-02-15T03:48:43;101495.66;;;11.88;100.00
3294;BME280;1659;51.470;6.770;2024-02-15T03:51:15;101500.94;;;11.88;100.00
3294;BME280;1659;51.470;6.770;2024-02-15T03:53:42;101503.56;;;11.90;100.00
3294;BME280;1659;51.470;6.770;2024-02-15T03:56:09;101500.94;;;11.90;100.00
3294;BME280;1659;51.470;6.770;2024-02-15T03:58:35;101496.53;;;11.90;100.00
3294;BME280;1659;51.470;6.770;2024-02-15T04:01:02;101495.59;;;11.93;100.00
3294;BME280;1659;51.470;6.770;2024-02-15T04:03:31;101497.38;;;11.93;100.00
3294;BME280;1659;51.470;6.770;2024-02-15T04:05:59;101498.25;;;11.93;100.00
3294;BME280;1659;51.470;6.770;2024-02-15T04:08:27;101496.50;;;11.94;100.00
3294;BME280;1659;51.470;6.770;2024-02-15T04:10:54;101495.59;;;11.95;100.00
3294;BME280;1659;51.470;6.770;2024-02-15T04:13:23;101492.06;;;11.96;100.00
3294;BME280;1659;51.470;6.770;2024-02-15T04:15:49;101496.44;;;11.97;100.00
3294;BME280;1659;51.470;6.770;2024-02-15T04:18:18;101500.00;;;11.96;100.00
3294;BME280;1659;51.470;6.770;2024-02-15T04:20:45;101498.22;;;11.96;100.00
3294;BME280;1659;51.470;6.770;2024-02-15T04:23:11;101503.50;;;11.96;100.00
3294;BME280;1659;51.470;6.770;2024-02-15T04:25:39;101494.69;;;11.97;100.00
3294;BME280;1659;51.470;6.770;2024-02-15T04:28:09;101496.44;;;11.97;100.00
3294;BME280;1659;51.470;6.770;2024-02-15T04:30:36;101500.84;;;11.99;100.00
3294;BME280;1659;51.470;6.770;2024-02-15T04:33:04;101491.09;;;12.01;100.00
3294;BME280;1659;51.470;6.770;2024-02-15T04:35:30;101500.81;;;12.02;100.00
3294;BME280;1659;51.470;6.770;2024-02-15T04:37:57;101495.53;;;12.01;100.00
3294;BME280;1659;51.470;6.770;2024-02-15T04:40:24;101498.16;;;12.01;100.00
3294;BME280;1659;51.470;6.770;2024-02-15T04:42:52;101489.31;;;12.00;100.00
3294;BME280;1659;51.470;6.770;2024-02-15T04:45:18;101495.56;;;11.98;100.00
3294;BME280;1659;51.470;6.770;2024-02-15T04:47:47;101498.22;;;11.96;100.00
3294;BME280;1659;51.470;6.770;2024-02-15T04:50:17;101487.63;;;11.95;100.00
3294;BME280;1659;51.470;6.770;2024-02-15T04:52:44;101491.19;;;11.94;100.00
3294;BME280;1659;51.470;6.770;2024-02-15T04:55:13;101488.56;;;11.94;100.00
3294;BME280;1659;51.470;6.770;2024-02-15T04:57:41;101480.63;;;11.92;100.00
3294;BME280;1659;51.470;6.770;2024-02-15T05:00:10;101485.91;;;11.92;100.00
3294;BME280;1659;51.470;6.770;2024-02-15T05:02:38;101483.28;;;11.90;100.00
3294;BME280;1659;51.470;6.770;2024-02-15T05:05:06;101476.19;;;11.89;100.00
3294;BME280;1659;51.470;6.770;2024-02-15T05:07:33;101470.97;;;11.86;100.00
3294;BME280;1659;51.470;6.770;2024-02-15T05:09:59;101476.25;;;11.86;100.00
3294;BME280;1659;51.470;6.770;2024-02-15T05:12:27;101471.84;;;11.85;100.00
3294;BME280;1659;51.470;6.770;2024-02-15T05:14:54;101467.50;;;11.81;100.00
3294;BME280;1659;51.470;6.770;2024-02-15T05:17:22;101471.03;;;11.80;100.00
3294;BME280;1659;51.470;6.770;2024-02-15T05:19:49;101477.19;;;11.79;100.00
3294;BME280;1659;51.470;6.770;2024-02-15T05:22:15;101474.59;;;11.78;100.00
3294;BME280;1659;51.470;6.770;2024-02-15T05:24:43;101471.06;;;11.76;100.00
3294;BME280;1659;51.470;6.770;2024-02-15T05:27:10;101475.50;;;11.75;100.00
3294;BME280;1659;51.470;6.770;2024-02-15T05:29:38;101469.34;;;11.75;100.00
3294;BME280;1659;51.470;6.770;2024-02-15T05:32:06;101477.28;;;11.75;100.00
3294;BME280;1659;51.470;6.770;2024-02-15T05:34:35;101478.16;;;11.75;100.00
3294;BME280;1659;51.470;6.770;2024-02-15T05:37:04;101474.63;;;11.76;100.00
3294;BME280;1659;51.470;6.770;2024-02-15T05:39:31;101468.41;;;11.77;100.00
3294;BME280;1659;51.470;6.770;2024-02-15T05:41:59;101474.59;;;11.78;100.00
3294;BME280;1659;51.470;6.770;2024-02-15T05:44:26;101464.88;;;11.78;100.00
3294;BME280;1659;51.470;6.770;2024-02-15T05:46:53;101465.72;;;11.82;100.00
3294;BME280;1659;51.470;6.770;2024-02-15T05:49:19;101465.69;;;11.83;100.00
3294;BME280;1659;51.470;6.770;2024-02-15T05:51:50;101467.41;;;11.86;100.00
3294;BME280;1659;51.470;6.770;2024-02-15T05:54:18;101469.19;;;11.87;100.00
3294;BME280;1659;51.470;6.770;2024-02-15T05:56:47;101471.81;;;11.88;100.00
3294;BME280;1659;51.470;6.770;2024-02-15T05:59:17;101476.22;;;11.91;100.00
3294;BME280;1659;51.470;6.770;2024-02-15T06:01:45;101480.63;;;11.92;100.00
3294;BME280;1659;51.470;6.770;2024-02-15T06:04:14;101479.75;;;11.90;100.00
3294;BME280;1659;51.470;6.770;2024-02-15T06:06:40;101471.78;;;11.90;100.00
3294;BME280;1659;51.470;6.770;2024-02-15T06:09:09;101470.03;;;11.90;100.00
3294;BME280;1659;51.470;6.770;2024-02-15T06:11:35;101462.97;;;11.91;100.00
3294;BME280;1659;51.470;6.770;2024-02-15T06:14:02;101460.31;;;11.89;100.00
3294;BME280;1659;51.470;6.770;2024-02-15T06:16:29;101467.41;;;11.90;100.00
3294;BME280;1659;51.470;6.770;2024-02-15T06:18:55;101460.31;;;11.91;100.00
3294;BME280;1659;51.470;6.770;2024-02-15T06:21:22;101457.66;;;11.93;100.00
3294;BME280;1659;51.470;6.770;2024-02-15T06:23:49;101458.53;;;11.93;100.00
3294;BME280;1659;51.470;6.770;2024-02-15T06:26:17;101461.16;;;11.95;100.00
3294;BME280;1659;51.470;6.770;2024-02-15T06:28:46;101467.31;;;11.97;100.00
3294;BME280;1659;51.470;6.770;2024-02-15T06:31:31;101471.72;;;11.98;100.00
3294;BME280;1659;51.470;6.770;2024-02-15T06:34:15;101474.34;;;11.99;100.00
3294;BME280;1659;51.470;6.770;2024-02-15T06:36:59;101472.59;;;11.98;100.00
3294;BME280;1659;51.470;6.770;2024-02-15T06:39:43;101478.78;;;11.97;100.00
3294;BME280;1659;51.470;6.770;2024-02-15T06:42:13;101470.88;;;11.96;100.00
3294;BME280;1659;51.470;6.770;2024-02-15T06:44:42;101473.53;;;11.94;100.00
3294;BME280;1659;51.470;6.770;2024-02-15T06:47:08;101474.41;;;11.95;100.00
3294;BME280;1659;51.470;6.770;2024-02-15T06:49:36;101463.84;;;11.92;100.00
3294;BME280;1659;51.470;6.770;2024-02-15T06:52:05;101475.31;;;11.89;100.00
3294;BME280;1659;51.470;6.770;2024-02-15T06:54:32;101477.09;;;11.88;100.00
3294;BME280;1659;51.470;6.770;2024-02-15T06:56:59;101479.78;;;11.87;100.00
3294;BME280;1659;51.470;6.770;2024-02-15T06:59:28;101476.28;;;11.85;100.00
3294;BME280;1659;51.470;6.770;2024-02-15T07:01:55;101473.63;;;11.83;100.00
3294;BME280;1659;51.470;6.770;2024-02-15T07:04:22;101468.38;;;11.80;100.00
3294;BME280;1659;51.470;6.770;2024-02-15T07:06:50;101468.38;;;11.79;100.00
3294;BME280;1659;51.470;6.770;2024-02-15T07:09:19;101469.31;;;11.76;100.00
3294;BME280;1659;51.470;6.770;2024-02-15T07:11:48;101474.63;;;11.76;100.00
3294;BME280;1659;51.470;6.770;2024-02-15T07:14:14;101467.56;;;11.74;100.00
3294;BME280;1659;51.470;6.770;2024-02-15T07:16:45;101457.00;;;11.70;100.00
3294;BME280;1659;51.470;6.770;2024-02-15T07:19:12;101457.00;;;11.70;100.00
3294;BME280;1659;51.470;6.770;2024-02-15T07:21:38;101450.84;;;11.68;100.00
3294;BME280;1659;51.470;6.770;2024-02-15T07:24:05;101442.06;;;11.68;100.00
3294;BME280;1659;51.470;6.770;2024-02-15T07:26:32;101439.41;;;11.66;100.00
3294;BME280;1659;51.470;6.770;2024-02-15T07:29:00;101443.84;;;11.64;100.00
3294;BME280;1659;51.470;6.770;2024-02-15T07:31:28;101450.09;;;11.60;100.00
3294;BME280;1659;51.470;6.770;2024-02-15T07:33:56;101452.78;;;11.56;100.00
3294;BME280;1659;51.470;6.770;2024-02-15T07:36:23;101448.44;;;11.51;100.00
3294;BME280;1659;51.470;6.770;2024-02-15T07:38:51;101449.34;;;11.47;100.00
3294;BME280;1659;51.470;6.770;2024-02-15T07:41:19;101454.63;;;11.47;100.00
3294;BME280;1659;51.470;6.770;2024-02-15T07:43:47;101454.66;;;11.46;100.00
3294;BME280;1659;51.470;6.770;2024-02-15T07:46:14;101459.97;;;11.44;100.00
3294;BME280;1659;51.470;6.770;2024-02-15T07:48:41;101453.81;;;11.44;100.00
3294;BME280;1659;51.470;6.770;2024-02-15T07:51:12;101459.09;;;11.44;100.00
3294;BME280;1659;51.470;6.770;2024-02-15T07:53:40;101462.59;;;11.44;100.00
3294;BME280;1659;51.470;6.770;2024-02-15T07:56:08;101459.97;;;11.44;100.00
3294;BME280;1659;51.470;6.770;2024-02-15T07:58:38;101463.50;;;11.46;100.00
3294;BME280;1659;51.470;6.770;2024-02-15T08:01:05;101458.16;;;11.48;100.00
3294;BME280;1659;51.470;6.770;2024-02-15T08:03:32;101458.13;;;11.49;100.00
3294;BME280;1659;51.470;6.770;2024-02-15T08:06:00;101470.47;;;11.52;100.00
3294;BME280;1659;51.470;6.770;2024-02-15T08:08:28;101467.81;;;11.53;100.00
3294;BME280;1659;51.470;6.770;2024-02-15T08:10:55;101460.72;;;11.56;100.00
3294;BME280;1659;51.470;6.770;2024-02-15T08:13:21;101462.47;;;11.57;100.00
3294;BME280;1659;51.470;6.770;2024-02-15T08:15:53;101463.34;;;11.59;100.00
3294;BME280;1659;51.470;6.770;2024-02-15T08:18:20;101472.16;;;11.59;100.00
3294;BME280;1659;51.470;6.770;2024-02-15T08:20:46;101474.81;;;11.59;100.00
3294;BME280;1659;51.470;6.770;2024-02-15T08:23:13;101470.38;;;11.60;100.00
3294;BME280;1659;51.470;6.770;2024-02-15T08:25:41;101468.63;;;11.60;100.00
3294;BME280;1659;51.470;6.770;2024-02-15T08:28:07;101461.56;;;11.61;100.00
3294;BME280;1659;51.470;6.770;2024-02-15T08:30:34;101473.03;;;11.60;100.00
3294;BME280;1659;51.470;6.770;2024-02-15T08:33:02;101465.09;;;11.58;100.00
3294;BME280;1659;51.470;6.770;2024-02-15T08:35:29;101458.94;;;11.56;100.00
3294;BME280;1659;51.470;6.770;2024-02-15T08:37:57;101462.53;;;11.52;100.00
3294;BME280;1659;51.470;6.770;2024-02-15T08:40:23;101451.09;;;11.50;100.00
3294;BME280;1659;51.470;6.770;2024-02-15T08:42:53;101445.81;;;11.48;100.00
3294;BME280;1659;51.470;6.770;2024-02-15T08:45:19;101440.53;;;11.47;100.00
3294;BME280;1659;51.470;6.770;2024-02-15T08:47:46;101444.91;;;11.48;100.00
3294;BME280;1659;51.470;6.770;2024-02-15T08:50:15;101447.56;;;11.48;100.00
3294;BME280;1659;51.470;6.770;2024-02-15T08:52:42;101442.25;;;11.49;100.00
3294;BME280;1659;51.470;6.770;2024-02-15T08:55:10;101445.78;;;11.51;100.00
3294;BME280;1659;51.470;6.770;2024-02-15T08:57:39;101434.28;;;11.52;100.00
3294;BME280;1659;51.470;6.770;2024-02-15T09:00:09;101433.34;;;11.58;100.00
3294;BME280;1659;51.470;6.770;2024-02-15T09:02:38;101445.66;;;11.61;100.00
3294;BME280;1659;51.470;6.770;2024-02-15T09:05:05;101436.78;;;11.65;100.00
3294;BME280;1659;51.470;6.770;2024-02-15T09:07:32;101444.75;;;11.63;100.00
3294;BME280;1659;51.470;6.770;2024-02-15T09:09:59;101445.69;;;11.59;100.00
3294;BME280;1659;51.470;6.770;2024-02-15T09:12:25;101431.63;;;11.56;100.00
3294;BME280;1659;51.470;6.770;2024-02-15T09:14:52;101435.13;;;11.55;100.00
3294;BME280;1659;51.470;6.770;2024-02-15T09:17:20;101430.69;;;11.57;100.00
3294;BME280;1659;51.470;6.770;2024-02-15T09:19:48;101429.81;;;11.58;100.00
3294;BME280;1659;51.470;6.770;2024-02-15T09:22:15;101428.91;;;11.60;100.00
3294;BME280;1659;51.470;6.770;2024-02-15T09:24:42;101428.00;;;11.61;100.00
3294;BME280;1659;51.470;6.770;2024-02-15T09:27:09;101424.41;;;11.65;100.00
3294;BME280;1659;51.470;6.770;2024-02-15T09:29:37;101409.41;;;11.67;100.00
3294;BME280;1659;51.470;6.770;2024-02-15T09:32:05;101416.41;;;11.71;100.00
3294;BME280;1659;51.470;6.770;2024-02-15T09:34:33;101411.94;;;11.75;100.00
3294;BME280;1659;51.470;6.770;2024-02-15T09:37:00;101406.63;;;11.78;100.00
3294;BME280;1659;51.470;6.770;2024-02-15T09:39:26;101410.09;;;11.82;100.00
3294;BME280;1659;51.470;6.770;2024-02-15T09:41:53;101404.78;;;11.85;100.00
3294;BME280;1659;51.470;6.770;2024-02-15T09:44:23;101411.78;;;11.87;100.00
3294;BME280;1659;51.470;6.770;2024-02-15T09:46:59;101408.25;;;11.88;100.00
3294;BME280;1659;51.470;6.770;2024-02-15T09:49:29;101408.22;;;11.92;100.00
3294;BME280;1659;51.470;6.770;2024-02-15T09:51:58;101415.25;;;11.96;100.00
3294;BME280;1659;51.470;6.770;2024-02-15T09:54:25;101413.41;;;12.01;100.00
3294;BME280;1659;51.470;6.770;2024-02-15T09:56:52;101409.81;;;12.05;100.00
3294;BME280;1659;51.470;6.770;2024-02-15T09:59:20;101412.41;;;12.09;100.00
3294;BME280;1659;51.470;6.770;2024-02-15T10:01:48;101417.66;;;12.13;100.00
3294;BME280;1659;51.470;6.770;2024-02-15T10:04:15;101406.94;;;12.19;100.00
3294;BME280;1659;51.470;6.770;2024-02-15T10:06:42;101403.31;;;12.24;100.00
3294;BME280;1659;51.470;6.770;2024-02-15T10:09:26;101410.28;;;12.32;100.00
3294;BME280;1659;51.470;6.770;2024-02-15T10:11:54;101411.94;;;12.39;100.00
3294;BME280;1659;51.470;6.770;2024-02-15T10:14:22;101408.31;;;12.44;100.00
3294;BME280;1659;51.470;6.770;2024-02-15T10:16:49;101413.53;;;12.47;100.00
3294;BME280;1659;51.470;6.770;2024-02-15T10:19:16;101412.63;;;12.50;100.00
3294;BME280;1659;51.470;6.770;2024-02-15T10:21:43;101414.41;;;12.51;100.00
3294;BME280;1659;51.470;6.770;2024-02-15T10:24:11;101409.97;;;12.52;100.00
3294;BME280;1659;51.470;6.770;2024-02-15T10:26:39;101399.31;;;12.55;100.00
3294;BME280;1659;51.470;6.770;2024-02-15T10:29:06;101404.53;;;12.58;100.00
3294;BME280;1659;51.470;6.770;2024-02-15T10:31:34;101393.00;;;12.62;100.00
3294;BME280;1659;51.470;6.770;2024-02-15T10:34:05;101404.41;;;12.67;100.00
3294;BME280;1659;51.470;6.770;2024-02-15T10:36:32;101392.81;;;12.73;100.00
3294;BME280;1659;51.470;6.770;2024-02-15T10:39:13;101391.88;;;12.75;100.00
3294;BME280;1659;51.470;6.770;2024-02-15T10:41:46;101397.09;;;12.80;100.00
3294;BME280;1659;51.470;6.770;2024-02-15T10:44:17;101388.16;;;12.85;100.00
3294;BME280;1659;51.470;6.770;2024-02-15T10:46:45;101381.03;;;12.88;100.00
3294;BME280;1659;51.470;6.770;2024-02-15T10:49:19;101386.25;;;12.94;100.00
3294;BME280;1659;51.470;6.770;2024-02-15T10:51:50;101382.59;;;12.99;100.00
3294;BME280;1659;51.470;6.770;2024-02-15T10:54:27;101389.63;;;13.03;100.00
3294;BME280;1659;51.470;6.770;2024-02-15T10:57:04;101388.63;;;13.08;100.00
3294;BME280;1659;51.470;6.770;2024-02-15T10:59:34;101380.63;;;13.11;100.00
3294;BME280;1659;51.470;6.770;2024-02-15T11:02:10;101376.03;;;13.17;100.00
3294;BME280;1659;51.470;6.770;2024-02-15T11:04:42;101387.41;;;13.26;100.00
3294;BME280;1659;51.470;6.770;2024-02-15T11:07:10;101383.72;;;13.34;100.00
3294;BME280;1659;51.470;6.770;2024-02-15T11:09:37;101386.28;;;13.39;100.00
3294;BME280;1659;51.470;6.770;2024-02-15T11:12:07;101379.78;;;13.52;100.00
3294;BME280;1659;51.470;6.770;2024-02-15T11:14:34;101377.84;;;13.62;100.00
3294;BME280;1659;51.470;6.770;2024-02-15T11:17:02;101382.13;;;13.68;100.00
3294;BME280;1659;51.470;6.770;2024-02-15T11:19:49;101382.00;;;13.74;100.00
3294;BME280;1659;51.470;6.770;2024-02-15T11:22:17;101385.50;;;13.76;100.00
3294;BME280;1659;51.470;6.770;2024-02-15T11:24:47;101375.72;;;13.78;100.00
3294;BME280;1659;51.470;6.770;2024-02-15T11:27:25;101376.50;;;13.82;100.00
3294;BME280;1659;51.470;6.770;2024-02-15T11:29:53;101377.31;;;13.85;100.00
3294;BME280;1659;51.470;6.770;2024-02-15T11:32:37;101368.41;;;13.88;100.00
3294;BME280;1659;51.470;6.770;2024-02-15T11:35:05;101370.06;;;13.93;100.00
3294;BME280;1659;51.470;6.770;2024-02-15T11:37:58;101358.44;;;13.97;100.00
3294;BME280;1659;51.470;6.770;2024-02-15T11:40:29;101369.00;;;14.01;100.00
3294;BME280;1659;51.470;6.770;2024-02-15T11:43:47;101359.06;;;14.09;100.00
3294;BME280;1659;51.470;6.770;2024-02-15T11:46:20;101355.19;;;14.22;100.00
3294;BME280;1659;51.470;6.770;2024-02-15T11:48:47;101349.56;;;14.34;100.00
3294;BME280;1659;51.470;6.770;2024-02-15T11:51:25;101345.88;;;14.42;100.00
3294;BME280;1659;51.470;6.770;2024-02-15T11:53:58;101344.66;;;14.53;100.00
3294;BME280;1659;51.470;6.770;2024-02-15T11:56:25;101334.69;;;14.63;100.00
3294;BME280;1659;51.470;6.770;2024-02-15T11:59:03;101329.06;;;14.74;100.00
3294;BME280;1659;51.470;6.770;2024-02-15T12:01:32;101332.22;;;14.88;100.00
3294;BME280;1659;51.470;6.770;2024-02-15T12:04:16;101322.88;;;15.06;100.00
3294;BME280;1659;51.470;6.770;2024-02-15T12:07:02;101328.31;;;15.33;100.00
3294;BME280;1659;51.470;6.770;2024-02-15T12:09:46;101322.09;;;15.62;100.00
3294;BME280;1659;51.470;6.770;2024-02-15T12:12:50;101314.47;;;16.08;100.00
3294;BME280;1659;51.470;6.770;2024-02-15T12:15:35;101320.63;;;16.35;97.95
3294;BME280;1659;51.470;6.770;2024-02-15T12:18:19;101310.91;;;16.59;96.00
3294;BME280;1659;51.470;6.770;2024-02-15T12:21:04;101310.66;;;16.67;92.78
3294;BME280;1659;51.470;6.770;2024-02-15T12:23:34;101313.38;;;16.66;92.53
3294;BME280;1659;51.470;6.770;2024-02-15T12:26:01;101308.97;;;16.65;92.22
3294;BME280;1659;51.470;6.770;2024-02-15T12:28:29;101302.44;;;16.73;93.55
3294;BME280;1659;51.470;6.770;2024-02-15T12:30:57;101302.97;;;16.83;93.78
3294;BME280;1659;51.470;6.770;2024-02-15T12:33:24;101292.31;;;16.83;91.21
3294;BME280;1659;51.470;6.770;2024-02-15T12:36:03;101289.63;;;16.83;91.05
3294;BME280;1659;51.470;6.770;2024-02-15T12:38:30;101278.47;;;16.97;90.92
3294;BME280;1659;51.470;6.770;2024-02-15T12:40:56;101285.38;;;17.03;90.16
3294;BME280;1659;51.470;6.770;2024-02-15T12:43:23;101281.25;;;17.17;90.57
3294;BME280;1659;51.470;6.770;2024-02-15T12:45:49;101271.56;;;17.39;90.77
3294;BME280;1659;51.470;6.770;2024-02-15T12:48:18;101288.28;;;17.66;88.22
3294;BME280;1659;51.470;6.770;2024-02-15T12:50:45;101270.69;;;17.82;86.90
3294;BME280;1659;51.470;6.770;2024-02-15T12:53:11;101272.63;;;18.01;86.16
3294;BME280;1659;51.470;6.770;2024-02-15T12:55:39;101266.91;;;18.10;84.76
3294;BME280;1659;51.470;6.770;2024-02-15T12:58:07;101272.84;;;18.17;83.61
3294;BME280;1659;51.470;6.770;2024-02-15T13:00:39;101265.78;;;18.16;81.76
3294;BME280;1659;51.470;6.770;2024-02-15T13:03:06;101256.75;;;18.18;81.58
3294;BME280;1659;51.470;6.770;2024-02-15T13:05:37;101260.28;;;18.19;81.58
3294;BME280;1659;51.470;6.770;2024-02-15T13:08:04;101262.22;;;18.15;82.31